EZY31NB LEPA-EGGD
Flight info
| Callsign | EZY31NB |
|---|---|
| Flight time | 1h 59m |
| Altitude | 34000 |
| Route | DRAGO DCT PAPOS DCT UMURE DCT XIKEN DCT KARES DCT ARBEK DCT REBUL DCT USKAR DCT MOPAS DCT GIROM DCT GONUP DCT MANAK DCT MUREL DCT NOZHU DCT SHIRI DCT TOJAQ |
| Aircraft | A21N/M-SDE2E3FGHIJ1RWXYZ/LB1G1 |
Departure
| Time | 2026-05-03 20:20 |
|---|---|
| Airport | Palma de Mallorca Airport (LEPA) |
Arrival
| Time | 2026-05-03 22:19 |
|---|---|
| Airport | Bristol Airport (EGGD) |
| Time | Latitude | Longitude | Altitude | Speed | Heading |
|---|---|---|---|---|---|
| 2026-05-03 20:15 | 39.55196 | 2.72927 | 30 ft | 0 kts | 55° |
| 2026-05-03 20:16 | 39.55196 | 2.72928 | 30 ft | 1 kts | 55° |
| 2026-05-03 20:16 | 39.55255 | 2.73043 | 30 ft | 31 kts | 58° |
| 2026-05-03 20:16 | 39.55367 | 2.73281 | 30 ft | 28 kts | 59° |
| 2026-05-03 20:16 | 39.55470 | 2.73500 | 30 ft | 24 kts | 58° |
| 2026-05-03 20:17 | 39.55539 | 2.73554 | 30 ft | 11 kts | 339° |
| 2026-05-03 20:17 | 39.55619 | 2.73502 | 30 ft | 12 kts | 349° |
| 2026-05-03 20:17 | 39.55689 | 2.73573 | 30 ft | 13 kts | 57° |
| 2026-05-03 20:17 | 39.55741 | 2.73684 | 30 ft | 14 kts | 58° |
| 2026-05-03 20:18 | 39.55799 | 2.73806 | 30 ft | 16 kts | 59° |
| 2026-05-03 20:18 | 39.55859 | 2.73937 | 30 ft | 16 kts | 59° |
| 2026-05-03 20:18 | 39.55924 | 2.74074 | 30 ft | 17 kts | 58° |
| 2026-05-03 20:18 | 39.55992 | 2.74216 | 30 ft | 17 kts | 57° |
| 2026-05-03 20:19 | 39.56064 | 2.74363 | 30 ft | 18 kts | 58° |
| 2026-05-03 20:19 | 39.56168 | 2.74437 | 30 ft | 17 kts | 345° |
| 2026-05-03 20:19 | 39.56247 | 2.74326 | 30 ft | 16 kts | 255° |
| 2026-05-03 20:19 | 39.56152 | 2.74110 | 30 ft | 57 kts | 238° |
| 2026-05-03 20:20 | 39.55763 | 2.73290 | 30 ft | 141 kts | 238° |
| 2026-05-03 20:20 | 39.55104 | 2.71904 | 247 ft | 188 kts | 238° |
| 2026-05-03 20:20 | 39.54366 | 2.70429 | 1197 ft | 185 kts | 237° |
| 2026-05-03 20:20 | 39.53643 | 2.69006 | 2127 ft | 188 kts | 238° |
| 2026-05-03 20:21 | 39.52893 | 2.67532 | 2807 ft | 204 kts | 238° |
| 2026-05-03 20:21 | 39.52103 | 2.65967 | 3393 ft | 218 kts | 238° |
| 2026-05-03 20:21 | 39.51220 | 2.64214 | 4009 ft | 232 kts | 238° |
| 2026-05-03 20:21 | 39.50244 | 2.62279 | 4595 ft | 251 kts | 238° |
| 2026-05-03 20:22 | 39.49230 | 2.60273 | 5531 ft | 254 kts | 238° |
| 2026-05-03 20:22 | 39.48231 | 2.58304 | 6460 ft | 256 kts | 238° |
| 2026-05-03 20:22 | 39.47235 | 2.56330 | 7321 ft | 259 kts | 241° |
| 2026-05-03 20:22 | 39.46630 | 2.54032 | 7918 ft | 268 kts | 271° |
| 2026-05-03 20:23 | 39.47165 | 2.51603 | 8482 ft | 277 kts | 307° |
| 2026-05-03 20:23 | 39.48514 | 2.49708 | 9346 ft | 279 kts | 317° |
| 2026-05-03 20:23 | 39.49878 | 2.48064 | 10129 ft | 281 kts | 317° |
| 2026-05-03 20:23 | 39.51354 | 2.46241 | 10730 ft | 292 kts | 316° |
| 2026-05-03 20:24 | 39.52874 | 2.44272 | 11105 ft | 311 kts | 314° |
| 2026-05-03 20:24 | 39.54465 | 2.42139 | 11586 ft | 324 kts | 314° |
| 2026-05-03 20:24 | 39.56101 | 2.39903 | 12368 ft | 328 kts | 313° |
| 2026-05-03 20:24 | 39.57738 | 2.37638 | 13167 ft | 330 kts | 313° |
| 2026-05-03 20:25 | 39.59377 | 2.35353 | 13912 ft | 334 kts | 313° |
| 2026-05-03 20:25 | 39.61066 | 2.32982 | 14658 ft | 338 kts | 312° |
| 2026-05-03 20:25 | 39.62729 | 2.30635 | 15372 ft | 341 kts | 312° |
| 2026-05-03 20:25 | 39.64415 | 2.28254 | 16073 ft | 345 kts | 312° |
| 2026-05-03 20:26 | 39.66151 | 2.25804 | 16771 ft | 348 kts | 312° |
| 2026-05-03 20:26 | 39.67836 | 2.23425 | 17426 ft | 351 kts | 312° |
| 2026-05-03 20:26 | 39.69599 | 2.20937 | 18083 ft | 355 kts | 312° |
| 2026-05-03 20:26 | 39.71395 | 2.18400 | 18730 ft | 358 kts | 312° |
| 2026-05-03 20:27 | 39.73196 | 2.15854 | 19357 ft | 362 kts | 312° |
| 2026-05-03 20:27 | 39.75050 | 2.13232 | 19983 ft | 365 kts | 312° |
| 2026-05-03 20:27 | 39.76916 | 2.10591 | 20591 ft | 368 kts | 312° |
| 2026-05-03 20:27 | 39.78794 | 2.07930 | 21185 ft | 371 kts | 312° |
| 2026-05-03 20:28 | 39.80627 | 2.05329 | 21742 ft | 375 kts | 312° |
| 2026-05-03 20:28 | 39.82512 | 2.02654 | 22294 ft | 378 kts | 312° |
| 2026-05-03 20:28 | 39.84367 | 2.00018 | 22818 ft | 381 kts | 312° |
| 2026-05-03 20:28 | 39.86176 | 1.97446 | 23319 ft | 383 kts | 311° |
| 2026-05-03 20:29 | 39.87986 | 1.94870 | 23797 ft | 386 kts | 311° |
| 2026-05-03 20:29 | 39.89867 | 1.92190 | 24272 ft | 389 kts | 311° |
| 2026-05-03 20:29 | 39.91779 | 1.89463 | 24738 ft | 392 kts | 311° |
| 2026-05-03 20:29 | 39.93728 | 1.86680 | 25199 ft | 395 kts | 311° |
| 2026-05-03 20:30 | 39.95592 | 1.84017 | 25624 ft | 397 kts | 311° |
| 2026-05-03 20:30 | 39.97522 | 1.81258 | 26043 ft | 400 kts | 311° |
| 2026-05-03 20:30 | 39.99646 | 1.78495 | 26457 ft | 403 kts | 319° |
| 2026-05-03 20:30 | 40.02055 | 1.76237 | 26850 ft | 407 kts | 328° |
| 2026-05-03 20:31 | 40.04794 | 1.74476 | 27247 ft | 411 kts | 336° |
| 2026-05-03 20:31 | 40.07646 | 1.72987 | 27631 ft | 413 kts | 337° |
| 2026-05-03 20:31 | 40.10462 | 1.71567 | 27985 ft | 416 kts | 337° |
| 2026-05-03 20:31 | 40.13373 | 1.70104 | 28349 ft | 418 kts | 337° |
| 2026-05-03 20:32 | 40.16288 | 1.68632 | 28702 ft | 420 kts | 337° |
| 2026-05-03 20:32 | 40.19140 | 1.67180 | 29037 ft | 423 kts | 337° |
| 2026-05-03 20:32 | 40.22059 | 1.65686 | 29365 ft | 425 kts | 337° |
| 2026-05-03 20:32 | 40.24948 | 1.64204 | 29676 ft | 427 kts | 337° |
| 2026-05-03 20:33 | 40.27923 | 1.62673 | 29989 ft | 429 kts | 337° |
| 2026-05-03 20:33 | 40.30831 | 1.61173 | 30279 ft | 431 kts | 337° |
| 2026-05-03 20:33 | 40.33746 | 1.59668 | 30561 ft | 433 kts | 337° |
| 2026-05-03 20:33 | 40.36662 | 1.58161 | 30828 ft | 435 kts | 337° |
| 2026-05-03 20:34 | 40.39590 | 1.56645 | 31095 ft | 437 kts | 337° |
| 2026-05-03 20:34 | 40.42564 | 1.55106 | 31415 ft | 437 kts | 337° |
| 2026-05-03 20:34 | 40.45504 | 1.53581 | 31779 ft | 436 kts | 337° |
| 2026-05-03 20:34 | 40.48549 | 1.52000 | 32142 ft | 435 kts | 337° |
| 2026-05-03 20:35 | 40.51535 | 1.50447 | 32478 ft | 434 kts | 337° |
| 2026-05-03 20:35 | 40.54526 | 1.48889 | 32804 ft | 433 kts | 337° |
| 2026-05-03 20:35 | 40.57468 | 1.47356 | 33108 ft | 432 kts | 337° |
| 2026-05-03 20:35 | 40.60412 | 1.45822 | 33407 ft | 432 kts | 336° |
| 2026-05-03 20:36 | 40.63309 | 1.44312 | 33684 ft | 431 kts | 337° |
| 2026-05-03 20:36 | 40.66222 | 1.42796 | 33955 ft | 431 kts | 337° |
| 2026-05-03 20:36 | 40.69124 | 1.41285 | 34217 ft | 430 kts | 337° |
| 2026-05-03 20:36 | 40.72001 | 1.39784 | 34437 ft | 431 kts | 336° |
| 2026-05-03 20:37 | 40.74919 | 1.38258 | 34631 ft | 431 kts | 336° |
| 2026-05-03 20:37 | 40.77840 | 1.36728 | 34816 ft | 432 kts | 337° |
| 2026-05-03 20:37 | 40.80718 | 1.35218 | 34994 ft | 433 kts | 337° |
| 2026-05-03 20:37 | 40.83637 | 1.33679 | 35176 ft | 433 kts | 336° |
| 2026-05-03 20:38 | 40.86513 | 1.32153 | 35353 ft | 434 kts | 336° |
| 2026-05-03 20:38 | 40.89477 | 1.30583 | 35522 ft | 435 kts | 336° |
| 2026-05-03 20:38 | 40.92367 | 1.29056 | 35684 ft | 435 kts | 336° |
| 2026-05-03 20:38 | 40.95280 | 1.27519 | 35847 ft | 436 kts | 336° |
| 2026-05-03 20:39 | 40.98240 | 1.25960 | 35992 ft | 436 kts | 336° |
| 2026-05-03 20:39 | 41.03902 | 1.22982 | 36002 ft | 434 kts | 335° |
| 2026-05-03 20:40 | 41.09774 | 1.19989 | 36006 ft | 431 kts | 336° |
| 2026-05-03 20:40 | 41.15794 | 1.17762 | 36006 ft | 433 kts | 342° |
| 2026-05-03 20:41 | 41.21985 | 1.16432 | 36005 ft | 437 kts | 348° |
| 2026-05-03 20:41 | 41.28279 | 1.15711 | 36005 ft | 436 kts | 350° |
| 2026-05-03 20:42 | 41.34381 | 1.15084 | 36005 ft | 436 kts | 350° |
| 2026-05-03 20:42 | 41.40571 | 1.14438 | 36005 ft | 436 kts | 350° |
| 2026-05-03 20:43 | 41.46756 | 1.13787 | 36005 ft | 437 kts | 350° |
| 2026-05-03 20:43 | 41.52914 | 1.13137 | 36005 ft | 437 kts | 350° |
| 2026-05-03 20:44 | 41.59098 | 1.12484 | 36003 ft | 437 kts | 350° |
| 2026-05-03 20:44 | 41.65217 | 1.11836 | 36001 ft | 437 kts | 350° |
| 2026-05-03 20:45 | 41.71211 | 1.11200 | 36000 ft | 438 kts | 350° |
| 2026-05-03 20:45 | 41.77348 | 1.10548 | 35998 ft | 438 kts | 350° |
| 2026-05-03 20:46 | 41.83496 | 1.09894 | 35996 ft | 438 kts | 350° |
| 2026-05-03 20:46 | 41.89535 | 1.09249 | 35991 ft | 439 kts | 350° |
| 2026-05-03 20:47 | 41.95707 | 1.08588 | 35987 ft | 440 kts | 350° |
| 2026-05-03 20:47 | 42.01920 | 1.07923 | 35983 ft | 440 kts | 350° |
| 2026-05-03 20:48 | 42.08205 | 1.07248 | 35982 ft | 441 kts | 350° |
| 2026-05-03 20:48 | 42.14372 | 1.06587 | 35981 ft | 441 kts | 350° |
| 2026-05-03 20:49 | 42.20587 | 1.05925 | 35980 ft | 442 kts | 350° |
| 2026-05-03 20:49 | 42.26813 | 1.05255 | 35981 ft | 443 kts | 350° |
| 2026-05-03 20:50 | 42.33032 | 1.04583 | 35981 ft | 443 kts | 350° |
| 2026-05-03 20:50 | 42.39096 | 1.03926 | 35981 ft | 443 kts | 350° |
| 2026-05-03 20:51 | 42.45267 | 1.03256 | 35981 ft | 443 kts | 350° |
| 2026-05-03 20:51 | 42.51391 | 1.02590 | 35980 ft | 445 kts | 350° |
| 2026-05-03 20:52 | 42.57574 | 1.01914 | 35981 ft | 445 kts | 350° |
| 2026-05-03 20:52 | 42.63691 | 1.01244 | 35981 ft | 446 kts | 350° |
| 2026-05-03 20:53 | 42.69815 | 1.00571 | 35981 ft | 446 kts | 350° |
| 2026-05-03 20:53 | 42.75897 | 0.99796 | 35982 ft | 444 kts | 347° |
| 2026-05-03 20:54 | 42.81797 | 0.98284 | 35983 ft | 441 kts | 341° |
| 2026-05-03 20:54 | 42.90440 | 0.95304 | 35986 ft | 442 kts | 340° |
| 2026-05-03 20:55 | 42.96218 | 0.93309 | 35987 ft | 439 kts | 339° |
| 2026-05-03 20:55 | 43.02060 | 0.91292 | 35984 ft | 436 kts | 338° |
| 2026-05-03 20:56 | 43.07859 | 0.89276 | 35982 ft | 432 kts | 337° |
| 2026-05-03 20:56 | 43.13532 | 0.87294 | 35980 ft | 432 kts | 337° |
| 2026-05-03 20:57 | 43.19268 | 0.85304 | 35978 ft | 432 kts | 337° |
| 2026-05-03 20:57 | 43.25004 | 0.83305 | 35974 ft | 432 kts | 337° |
| 2026-05-03 20:58 | 43.30724 | 0.81303 | 35975 ft | 433 kts | 337° |
| 2026-05-03 20:58 | 43.36528 | 0.79267 | 35976 ft | 433 kts | 337° |
| 2026-05-03 20:59 | 43.42256 | 0.77254 | 35980 ft | 432 kts | 336° |
| 2026-05-03 20:59 | 43.47865 | 0.74812 | 35984 ft | 426 kts | 330° |
| 2026-05-03 21:00 | 43.52398 | 0.72246 | 35986 ft | 426 kts | 328° |
| 2026-05-03 21:00 | 43.58626 | 0.68568 | 35985 ft | 425 kts | 328° |
| 2026-05-03 21:01 | 43.63993 | 0.65391 | 35986 ft | 425 kts | 328° |
| 2026-05-03 21:01 | 43.69374 | 0.62207 | 35997 ft | 425 kts | 328° |
| 2026-05-03 21:02 | 43.74778 | 0.59004 | 36006 ft | 425 kts | 328° |
| 2026-05-03 21:02 | 43.80064 | 0.55866 | 36004 ft | 425 kts | 328° |
| 2026-05-03 21:03 | 43.85468 | 0.52653 | 35996 ft | 425 kts | 328° |
| 2026-05-03 21:03 | 43.90831 | 0.49456 | 35984 ft | 425 kts | 328° |
| 2026-05-03 21:04 | 43.96105 | 0.46308 | 35972 ft | 425 kts | 328° |
| 2026-05-03 21:04 | 44.01496 | 0.43083 | 35961 ft | 425 kts | 328° |
| 2026-05-03 21:05 | 44.06901 | 0.39844 | 35955 ft | 425 kts | 328° |
| 2026-05-03 21:05 | 44.12344 | 0.36580 | 35953 ft | 425 kts | 329° |
| 2026-05-03 21:06 | 44.17692 | 0.33376 | 35954 ft | 424 kts | 328° |
| 2026-05-03 21:06 | 44.23089 | 0.30109 | 35953 ft | 424 kts | 328° |
| 2026-05-03 21:07 | 44.28475 | 0.26847 | 35953 ft | 425 kts | 328° |
| 2026-05-03 21:07 | 44.33702 | 0.23679 | 35952 ft | 424 kts | 328° |
| 2026-05-03 21:08 | 44.39086 | 0.20411 | 35951 ft | 425 kts | 328° |
| 2026-05-03 21:08 | 44.44440 | 0.17159 | 35950 ft | 424 kts | 328° |
| 2026-05-03 21:09 | 44.49868 | 0.13851 | 35953 ft | 425 kts | 328° |
| 2026-05-03 21:09 | 44.55203 | 0.10597 | 35952 ft | 425 kts | 328° |
| 2026-05-03 21:10 | 44.60548 | 0.07329 | 35953 ft | 424 kts | 328° |
| 2026-05-03 21:10 | 44.65950 | 0.04019 | 35950 ft | 424 kts | 328° |
| 2026-05-03 21:11 | 44.71320 | 0.00721 | 35954 ft | 425 kts | 328° |
| 2026-05-03 21:11 | 44.76673 | -0.02571 | 35953 ft | 424 kts | 328° |
| 2026-05-03 21:12 | 44.82062 | -0.05894 | 35952 ft | 425 kts | 328° |
| 2026-05-03 21:12 | 44.87437 | -0.09213 | 35952 ft | 425 kts | 328° |
| 2026-05-03 21:13 | 44.92824 | -0.12549 | 35953 ft | 424 kts | 328° |
| 2026-05-03 21:13 | 44.98238 | -0.15906 | 35951 ft | 425 kts | 328° |
| 2026-05-03 21:14 | 45.03618 | -0.19255 | 35950 ft | 427 kts | 328° |
| 2026-05-03 21:14 | 45.09064 | -0.22650 | 35950 ft | 429 kts | 328° |
| 2026-05-03 21:15 | 45.14460 | -0.26004 | 35951 ft | 432 kts | 329° |
| 2026-05-03 21:15 | 45.19941 | -0.29407 | 35952 ft | 432 kts | 329° |
| 2026-05-03 21:16 | 45.25425 | -0.32835 | 35953 ft | 432 kts | 329° |
| 2026-05-03 21:16 | 45.30916 | -0.36280 | 35960 ft | 432 kts | 329° |
| 2026-05-03 21:17 | 45.35493 | -0.39159 | 35971 ft | 432 kts | 329° |
| 2026-05-03 21:17 | 45.41834 | -0.43157 | 35980 ft | 432 kts | 329° |
| 2026-05-03 21:18 | 45.47290 | -0.46607 | 35984 ft | 432 kts | 329° |
| 2026-05-03 21:18 | 45.52742 | -0.50060 | 35986 ft | 432 kts | 329° |
| 2026-05-03 21:19 | 45.58255 | -0.53560 | 35986 ft | 432 kts | 329° |
| 2026-05-03 21:19 | 45.63696 | -0.57022 | 35986 ft | 431 kts | 329° |
| 2026-05-03 21:20 | 45.69114 | -0.60476 | 35986 ft | 431 kts | 329° |
| 2026-05-03 21:20 | 45.74596 | -0.63979 | 35986 ft | 432 kts | 329° |
| 2026-05-03 21:21 | 45.79897 | -0.67386 | 35987 ft | 431 kts | 328° |
| 2026-05-03 21:21 | 45.85316 | -0.70887 | 35987 ft | 431 kts | 328° |
| 2026-05-03 21:22 | 45.90765 | -0.74399 | 35988 ft | 433 kts | 328° |
| 2026-05-03 21:22 | 45.96181 | -0.77897 | 35984 ft | 441 kts | 328° |
| 2026-05-03 21:23 | 46.01770 | -0.81507 | 35979 ft | 447 kts | 328° |
| 2026-05-03 21:23 | 46.07424 | -0.85163 | 35969 ft | 449 kts | 328° |
| 2026-05-03 21:24 | 46.13072 | -0.88814 | 35961 ft | 449 kts | 328° |
| 2026-05-03 21:24 | 46.18715 | -0.92465 | 35957 ft | 449 kts | 328° |
| 2026-05-03 21:25 | 46.24195 | -0.96379 | 35955 ft | 445 kts | 324° |
| 2026-05-03 21:25 | 46.29443 | -1.00491 | 35953 ft | 444 kts | 324° |
| 2026-05-03 21:26 | 46.34828 | -1.04740 | 35954 ft | 442 kts | 324° |
| 2026-05-03 21:26 | 46.40196 | -1.08982 | 35954 ft | 440 kts | 324° |
| 2026-05-03 21:27 | 46.45497 | -1.13176 | 35955 ft | 438 kts | 325° |
| 2026-05-03 21:27 | 46.50792 | -1.17375 | 35958 ft | 437 kts | 325° |
| 2026-05-03 21:28 | 46.56098 | -1.21590 | 35964 ft | 435 kts | 325° |
| 2026-05-03 21:28 | 46.61392 | -1.25803 | 35971 ft | 435 kts | 325° |
| 2026-05-03 21:29 | 46.66639 | -1.29990 | 35974 ft | 435 kts | 325° |
| 2026-05-03 21:29 | 46.71865 | -1.34170 | 35977 ft | 435 kts | 325° |
| 2026-05-03 21:30 | 46.77141 | -1.38398 | 35978 ft | 435 kts | 325° |
| 2026-05-03 21:30 | 46.82404 | -1.42627 | 35979 ft | 435 kts | 325° |
| 2026-05-03 21:31 | 46.87720 | -1.46907 | 35978 ft | 435 kts | 325° |
| 2026-05-03 21:31 | 46.92833 | -1.51023 | 35977 ft | 433 kts | 324° |
| 2026-05-03 21:32 | 46.98002 | -1.55189 | 35971 ft | 432 kts | 323° |
| 2026-05-03 21:32 | 47.03166 | -1.59370 | 35965 ft | 432 kts | 322° |
| 2026-05-03 21:33 | 47.08276 | -1.63530 | 35959 ft | 431 kts | 321° |
| 2026-05-03 21:33 | 47.13397 | -1.67711 | 35956 ft | 431 kts | 321° |
| 2026-05-03 21:34 | 47.18592 | -1.71952 | 35954 ft | 431 kts | 321° |
| 2026-05-03 21:34 | 47.23747 | -1.76170 | 35953 ft | 431 kts | 321° |
| 2026-05-03 21:35 | 47.28905 | -1.80398 | 35952 ft | 431 kts | 321° |
| 2026-05-03 21:35 | 47.34028 | -1.84608 | 35952 ft | 431 kts | 321° |
| 2026-05-03 21:36 | 47.39193 | -1.88860 | 35953 ft | 430 kts | 321° |
| 2026-05-03 21:36 | 47.44325 | -1.93095 | 35952 ft | 431 kts | 321° |
| 2026-05-03 21:37 | 47.49358 | -1.97259 | 35952 ft | 431 kts | 321° |
| 2026-05-03 21:37 | 47.54509 | -2.01529 | 35953 ft | 431 kts | 321° |
| 2026-05-03 21:38 | 47.59645 | -2.05796 | 35952 ft | 430 kts | 321° |
| 2026-05-03 21:38 | 47.64789 | -2.10080 | 35953 ft | 431 kts | 321° |
| 2026-05-03 21:39 | 47.69999 | -2.14429 | 35952 ft | 431 kts | 321° |
| 2026-05-03 21:39 | 47.75182 | -2.18765 | 35952 ft | 431 kts | 321° |
| 2026-05-03 21:40 | 47.80337 | -2.23088 | 35952 ft | 431 kts | 321° |
| 2026-05-03 21:40 | 47.85524 | -2.27447 | 35952 ft | 431 kts | 321° |
| 2026-05-03 21:41 | 47.90606 | -2.31729 | 35952 ft | 431 kts | 321° |
| 2026-05-03 21:41 | 47.95684 | -2.36016 | 35952 ft | 431 kts | 321° |
| 2026-05-03 21:42 | 48.00565 | -2.40147 | 35953 ft | 431 kts | 321° |
| 2026-05-03 21:42 | 48.05854 | -2.44632 | 35953 ft | 431 kts | 321° |
| 2026-05-03 21:43 | 48.10948 | -2.48962 | 35955 ft | 431 kts | 321° |
| 2026-05-03 21:44 | 48.20883 | -2.57386 | 35963 ft | 431 kts | 321° |
| 2026-05-03 21:44 | 48.26022 | -2.61777 | 35962 ft | 431 kts | 321° |
| 2026-05-03 21:45 | 48.31067 | -2.66105 | 35963 ft | 431 kts | 320° |
| 2026-05-03 21:45 | 48.36221 | -2.70560 | 35957 ft | 430 kts | 320° |
| 2026-05-03 21:46 | 48.41327 | -2.74976 | 35954 ft | 430 kts | 320° |
| 2026-05-03 21:46 | 48.46269 | -2.79248 | 35953 ft | 429 kts | 320° |
| 2026-05-03 21:47 | 48.51387 | -2.83676 | 35953 ft | 430 kts | 320° |
| 2026-05-03 21:47 | 48.56493 | -2.88108 | 35953 ft | 430 kts | 320° |
| 2026-05-03 21:48 | 48.61581 | -2.92531 | 35952 ft | 429 kts | 320° |
| 2026-05-03 21:48 | 48.66666 | -2.96962 | 35953 ft | 430 kts | 319° |
| 2026-05-03 21:49 | 48.71677 | -3.01341 | 35952 ft | 430 kts | 319° |
| 2026-05-03 21:49 | 48.76680 | -3.05724 | 35952 ft | 431 kts | 319° |
| 2026-05-03 21:50 | 48.81733 | -3.10163 | 35952 ft | 431 kts | 319° |
| 2026-05-03 21:50 | 48.86882 | -3.14697 | 35952 ft | 431 kts | 318° |
| 2026-05-03 21:51 | 48.92025 | -3.19242 | 35952 ft | 431 kts | 318° |
| 2026-05-03 21:51 | 48.97111 | -3.23742 | 35951 ft | 431 kts | 318° |
| 2026-05-03 21:52 | 49.02321 | -3.28349 | 35952 ft | 431 kts | 317° |
| 2026-05-03 21:52 | 49.07415 | -3.32870 | 35952 ft | 431 kts | 316° |
| 2026-05-03 21:53 | 49.12436 | -3.37336 | 35951 ft | 432 kts | 315° |
| 2026-05-03 21:53 | 49.17558 | -3.41898 | 35952 ft | 432 kts | 315° |
| 2026-05-03 21:54 | 49.22696 | -3.46506 | 35953 ft | 432 kts | 315° |
| 2026-05-03 21:54 | 49.27822 | -3.51109 | 35952 ft | 433 kts | 315° |
| 2026-05-03 21:55 | 49.30489 | -3.53274 | 35947 ft | 445 kts | 321° |
| 2026-05-03 21:55 | 49.33456 | -3.54918 | 35948 ft | 463 kts | 330° |
| 2026-05-03 21:55 | 49.36621 | -3.55891 | 35948 ft | 482 kts | 339° |
| 2026-05-03 21:55 | 49.40012 | -3.56133 | 35949 ft | 501 kts | 348° |
| 2026-05-03 21:56 | 49.46995 | -3.55409 | 35952 ft | 510 kts | 353° |
| 2026-05-03 21:56 | 49.50567 | -3.54366 | 35934 ft | 529 kts | 4° |
| 2026-05-03 21:56 | 49.54042 | -3.52664 | 35727 ft | 530 kts | 8° |
| 2026-05-03 21:57 | 49.57507 | -3.50746 | 35171 ft | 527 kts | 9° |
| 2026-05-03 21:57 | 49.60909 | -3.48813 | 34475 ft | 523 kts | 9° |
| 2026-05-03 21:57 | 49.64317 | -3.46895 | 33730 ft | 519 kts | 8° |
| 2026-05-03 21:57 | 49.67554 | -3.45104 | 33142 ft | 511 kts | 8° |
| 2026-05-03 21:58 | 49.70855 | -3.43299 | 32296 ft | 508 kts | 8° |
| 2026-05-03 21:58 | 49.74177 | -3.41510 | 31135 ft | 509 kts | 8° |
| 2026-05-03 21:58 | 49.77560 | -3.39696 | 29712 ft | 511 kts | 9° |
| 2026-05-03 21:58 | 49.80856 | -3.37924 | 28713 ft | 502 kts | 9° |
| 2026-05-03 21:59 | 49.84107 | -3.36149 | 28093 ft | 485 kts | 9° |
| 2026-05-03 21:59 | 49.87213 | -3.34456 | 26972 ft | 482 kts | 10° |
| 2026-05-03 21:59 | 49.90421 | -3.32729 | 25654 ft | 481 kts | 10° |
| 2026-05-03 21:59 | 49.93576 | -3.31025 | 24592 ft | 474 kts | 11° |
| 2026-05-03 22:00 | 49.96723 | -3.29314 | 23602 ft | 464 kts | 11° |
| 2026-05-03 22:00 | 49.99730 | -3.27670 | 23034 ft | 448 kts | 11° |
| 2026-05-03 22:00 | 50.02666 | -3.26063 | 22584 ft | 438 kts | 11° |
| 2026-05-03 22:00 | 50.05577 | -3.24478 | 22141 ft | 436 kts | 11° |
| 2026-05-03 22:01 | 50.08501 | -3.22888 | 21706 ft | 433 kts | 11° |
| 2026-05-03 22:01 | 50.11357 | -3.21331 | 21278 ft | 430 kts | 11° |
| 2026-05-03 22:01 | 50.14218 | -3.19771 | 20854 ft | 426 kts | 12° |
| 2026-05-03 22:01 | 50.16961 | -3.18273 | 20448 ft | 422 kts | 12° |
| 2026-05-03 22:02 | 50.19742 | -3.16750 | 20035 ft | 419 kts | 12° |
| 2026-05-03 22:02 | 50.22508 | -3.15233 | 19618 ft | 415 kts | 12° |
| 2026-05-03 22:02 | 50.25202 | -3.13753 | 19213 ft | 412 kts | 12° |
| 2026-05-03 22:02 | 50.27889 | -3.12274 | 18803 ft | 409 kts | 12° |
| 2026-05-03 22:03 | 50.30563 | -3.10799 | 18400 ft | 406 kts | 12° |
| 2026-05-03 22:03 | 50.33128 | -3.09383 | 18021 ft | 402 kts | 13° |
| 2026-05-03 22:03 | 50.35693 | -3.07964 | 17640 ft | 399 kts | 13° |
| 2026-05-03 22:03 | 50.38246 | -3.06551 | 17265 ft | 395 kts | 13° |
| 2026-05-03 22:04 | 50.40796 | -3.05138 | 16886 ft | 392 kts | 13° |
| 2026-05-03 22:04 | 50.43333 | -3.03731 | 16506 ft | 389 kts | 13° |
| 2026-05-03 22:04 | 50.45832 | -3.02344 | 16130 ft | 386 kts | 13° |
| 2026-05-03 22:04 | 50.48365 | -3.00936 | 15744 ft | 383 kts | 13° |
| 2026-05-03 22:05 | 50.50844 | -2.99556 | 15365 ft | 380 kts | 13° |
| 2026-05-03 22:05 | 50.53313 | -2.98181 | 14983 ft | 377 kts | 13° |
| 2026-05-03 22:05 | 50.55754 | -2.96819 | 14601 ft | 374 kts | 13° |
| 2026-05-03 22:05 | 50.58172 | -2.95470 | 14219 ft | 372 kts | 14° |
| 2026-05-03 22:06 | 50.60603 | -2.94111 | 13835 ft | 369 kts | 14° |
| 2026-05-03 22:06 | 50.62938 | -2.92804 | 13462 ft | 367 kts | 14° |
| 2026-05-03 22:06 | 50.65286 | -2.91489 | 13083 ft | 364 kts | 14° |
| 2026-05-03 22:06 | 50.67648 | -2.90164 | 12701 ft | 361 kts | 14° |
| 2026-05-03 22:07 | 50.69958 | -2.88867 | 12323 ft | 359 kts | 14° |
| 2026-05-03 22:07 | 50.72274 | -2.87566 | 11939 ft | 356 kts | 14° |
| 2026-05-03 22:07 | 50.74583 | -2.86268 | 11535 ft | 354 kts | 15° |
| 2026-05-03 22:07 | 50.76864 | -2.84986 | 11106 ft | 352 kts | 15° |
| 2026-05-03 22:08 | 50.79121 | -2.83716 | 10670 ft | 350 kts | 15° |
| 2026-05-03 22:08 | 50.81396 | -2.82435 | 10227 ft | 349 kts | 16° |
| 2026-05-03 22:08 | 50.83589 | -2.81194 | 10073 ft | 337 kts | 16° |
| 2026-05-03 22:08 | 50.85588 | -2.80056 | 10003 ft | 323 kts | 16° |
| 2026-05-03 22:09 | 50.87973 | -2.78705 | 9814 ft | 312 kts | 16° |
| 2026-05-03 22:09 | 50.90000 | -2.77563 | 9429 ft | 311 kts | 17° |
| 2026-05-03 22:09 | 50.91991 | -2.76435 | 9087 ft | 308 kts | 17° |
| 2026-05-03 22:10 | 50.95713 | -2.74330 | 8459 ft | 303 kts | 18° |
| 2026-05-03 22:10 | 50.97149 | -2.73517 | 8216 ft | 301 kts | 18° |
| 2026-05-03 22:10 | 50.99059 | -2.72432 | 7900 ft | 299 kts | 18° |
| 2026-05-03 22:10 | 51.01153 | -2.71245 | 7554 ft | 296 kts | 19° |
| 2026-05-03 22:11 | 51.03178 | -2.70097 | 7221 ft | 293 kts | 19° |
| 2026-05-03 22:11 | 51.04616 | -2.69276 | 6989 ft | 291 kts | 20° |
| 2026-05-03 22:11 | 51.06466 | -2.68212 | 6692 ft | 288 kts | 19° |
| 2026-05-03 22:11 | 51.08628 | -2.66968 | 6350 ft | 301 kts | 19° |
| 2026-05-03 22:12 | 51.10672 | -2.65800 | 6010 ft | 330 kts | 20° |
| 2026-05-03 22:12 | 51.13191 | -2.64362 | 5602 ft | 340 kts | 19° |
| 2026-05-03 22:12 | 51.15421 | -2.63096 | 5274 ft | 338 kts | 20° |
| 2026-05-03 22:12 | 51.17598 | -2.61851 | 5002 ft | 336 kts | 20° |
| 2026-05-03 22:13 | 51.19774 | -2.60608 | 4670 ft | 333 kts | 20° |
| 2026-05-03 22:13 | 51.21950 | -2.59348 | 4258 ft | 331 kts | 20° |
| 2026-05-03 22:13 | 51.24096 | -2.58118 | 3966 ft | 327 kts | 20° |
| 2026-05-03 22:13 | 51.26212 | -2.56892 | 3578 ft | 323 kts | 20° |
| 2026-05-03 22:14 | 51.28261 | -2.55714 | 3516 ft | 300 kts | 21° |
| 2026-05-03 22:14 | 51.30152 | -2.54623 | 3459 ft | 274 kts | 21° |
| 2026-05-03 22:14 | 51.31871 | -2.53616 | 3362 ft | 253 kts | 21° |
| 2026-05-03 22:14 | 51.33458 | -2.52700 | 3203 ft | 237 kts | 20° |
| 2026-05-03 22:15 | 51.34965 | -2.51829 | 3047 ft | 221 kts | 20° |
| 2026-05-03 22:15 | 51.36353 | -2.51030 | 2837 ft | 206 kts | 20° |
| 2026-05-03 22:15 | 51.37624 | -2.50306 | 2559 ft | 197 kts | 17° |
| 2026-05-03 22:15 | 51.38923 | -2.50286 | 2166 ft | 193 kts | 336° |
| 2026-05-03 22:16 | 51.39767 | -2.51848 | 2038 ft | 188 kts | 281° |
| 2026-05-03 22:16 | 51.39642 | -2.53880 | 2041 ft | 181 kts | 250° |
| 2026-05-03 22:16 | 51.39254 | -2.55681 | 1862 ft | 170 kts | 249° |
| 2026-05-03 22:16 | 51.38967 | -2.57489 | 1551 ft | 158 kts | 257° |
| 2026-05-03 22:17 | 51.38810 | -2.59141 | 1616 ft | 147 kts | 260° |
| 2026-05-03 22:17 | 51.38706 | -2.60761 | 1673 ft | 149 kts | 263° |
| 2026-05-03 22:17 | 51.38638 | -2.62413 | 1615 ft | 147 kts | 264° |
| 2026-05-03 22:17 | 51.38579 | -2.64045 | 1429 ft | 148 kts | 264° |
| 2026-05-03 22:18 | 51.38518 | -2.65585 | 1247 ft | 148 kts | 264° |
| 2026-05-03 22:18 | 51.38452 | -2.67224 | 1052 ft | 148 kts | 265° |
| 2026-05-03 22:18 | 51.38387 | -2.68868 | 854 ft | 147 kts | 265° |
| 2026-05-03 22:18 | 51.38323 | -2.70496 | 672 ft | 145 kts | 265° |
| 2026-05-03 22:19 | 51.38263 | -2.72030 | 609 ft | 125 kts | 265° |
| 2026-05-03 22:19 | 51.38209 | -2.73162 | 605 ft | 70 kts | 276° |
| 2026-05-03 22:19 | 51.38385 | -2.73234 | 598 ft | 29 kts | 78° |
| 2026-05-03 22:19 | 51.38393 | -2.72949 | 608 ft | 23 kts | 86° |
| 2026-05-03 22:20 | 51.38402 | -2.72705 | 613 ft | 20 kts | 86° |
| 2026-05-03 22:20 | 51.38411 | -2.72478 | 612 ft | 20 kts | 86° |
| 2026-05-03 22:20 | 51.38419 | -2.72261 | 609 ft | 22 kts | 86° |
| 2026-05-03 22:20 | 51.38429 | -2.72001 | 604 ft | 25 kts | 88° |
| 2026-05-03 22:21 | 51.38434 | -2.71721 | 602 ft | 26 kts | 87° |
| 2026-05-03 22:21 | 51.38446 | -2.71443 | 598 ft | 15 kts | 72° |
| 2026-05-03 22:21 | 51.38500 | -2.71407 | 596 ft | 8 kts | 359° |
| 2026-05-03 22:21 | 51.38537 | -2.71411 | 595 ft | 2 kts | 356° |
| 2026-05-03 22:22 | 51.38548 | -2.71412 | 594 ft | 0 kts | 356° |